Ems Express — WDC6662 — position and weather

sailwx.info

Track history (hours):
 
Tides and Currents Weather Stations Pressure Air Temp Water Temp Dewpoint Dewpoint Depression Visibility Wind Speed Wind Dir Waves Ship Positions

Ems Express

Owner: Marquette Transportation Company Gulf-Inland, LLC, Jefferson, LA. More information available from US FCC via Universal Licensing System and Coast Guard Vessel Documentation Center.

Last reported at 2018-Jun-20 05:52 UTC. Time now 2018-Jun-20 09:47 UTC.
Position N 29°56' W 093°04'.

Length 22 m; draft 2.9 m.

Type: . MMSI: 367059310.

Date/timePositionNaut miles runAvg speedWind from/ knotsBaromVisibWave heightAir tempDewpointWater temp
2018-Jun-20 05:52N 29°56' W 093°04'2 3.9
2018-Jun-20 05:26N 29°56' W 093°06'1 3.0
2018-Jun-20 04:58N 29°56' W 093°08'2 3.6
2018-Jun-20 04:30N 29°56' W 093°10'3 6.2
2018-Jun-20 04:00N 29°59' W 093°12'2 4.6
2018-Jun-20 03:30N 30°01' W 093°14'2 3.7
2018-Jun-20 03:00N 30°02' W 093°15'2 3.2
2018-Jun-20 02:30N 30°03' W 093°16'2 4.1
2018-Jun-20 02:00N 30°05' W 093°17'1 1.3
2018-Jun-20 01:30N 30°05' W 093°18'1 1.4
2018-Jun-20 01:00N 30°06' W 093°18'0 0.1
2018-Jun-20 00:30N 30°06' W 093°18'0 0.0
2018-Jun-20 00:00N 30°06' W 093°18'0 0.0
2018-Jun-19 23:30N 30°06' W 093°18'0 0.0
2018-Jun-19 23:00N 30°06' W 093°18'0 0.1
2018-Jun-19 22:30N 30°06' W 093°18'0 0.1
2018-Jun-19 22:00N 30°06' W 093°18'0 0.0
2018-Jun-19 21:30N 30°06' W 093°18'0 0.0
2018-Jun-19 21:00N 30°06' W 093°18'0 0.0
2018-Jun-19 20:30N 30°06' W 093°18'0 0.0
2018-Jun-19 20:00N 30°06' W 093°18'0 0.0
2018-Jun-19 19:30N 30°06' W 093°18'0 0.0
2018-Jun-19 19:00N 30°06' W 093°18'0 0.0
2018-Jun-19 18:30N 30°06' W 093°18'0 0.0
2018-Jun-19 18:00N 30°06' W 093°18'0 0.0
2018-Jun-19 17:30N 30°06' W 093°18'0 0.0
2018-Jun-19 16:59N 30°06' W 093°18'0 0.0
2018-Jun-19 16:30N 30°06' W 093°18'0 0.1
2018-Jun-19 16:00N 30°06' W 093°18'0 0.0
2018-Jun-19 15:30N 30°06' W 093°18'0 0.0
2018-Jun-19 15:00N 30°06' W 093°18'0 0.0
2018-Jun-19 14:30N 30°06' W 093°18'0 0.0
2018-Jun-19 14:00N 30°06' W 093°18'0 0.0
2018-Jun-19 13:30N 30°06' W 093°18'0 0.0
2018-Jun-19 13:00N 30°06' W 093°18'0 0.0
2018-Jun-19 12:30N 30°06' W 093°18'0 0.1
2018-Jun-19 12:00N 30°06' W 093°18'0 0.0
2018-Jun-19 11:30N 30°06' W 093°18'1 2.6
2018-Jun-19 11:00N 30°05' W 093°20'3 5.1
2018-Jun-19 10:30N 30°04' W 093°22'2 4.6
2018-Jun-19 10:00N 30°04' W 093°24'1 2.6
2018-Jun-19 09:30N 30°04' W 093°26'0 0.0
2018-Jun-19 09:00N 30°04' W 093°26'0 0.0
2018-Jun-19 08:30N 30°04' W 093°26'2 3.5
2018-Jun-19 08:00N 30°04' W 093°28'0 0.0
2018-Jun-19 07:30N 30°04' W 093°28'0 0.0
2018-Jun-19 07:00N 30°04' W 093°28'0 0.0
2018-Jun-19 06:30N 30°04' W 093°28'0 0.0
2018-Jun-19 06:00N 30°04' W 093°28'0 0.0
2018-Jun-19 05:30N 30°04' W 093°28'0 0.0
2018-Jun-19 05:00N 30°04' W 093°28'0 0.2
2018-Jun-19 04:30N 30°04' W 093°28'3 6.0
2018-Jun-19 04:00N 30°04' W 093°31'8 6.3
2018-Jun-19 02:47N 30°04' W 093°40'2 5.6
2018-Jun-19 02:27N 30°03' W 093°42'3 5.6
2018-Jun-19 02:00N 30°01' W 093°44'3 6.6
2018-Jun-19 01:30N 29°59' W 093°47'3 6.8
2018-Jun-19 01:00N 29°58' W 093°51'1 2.5
2018-Jun-19 00:30N 29°57' W 093°52'0 0.0
2018-Jun-19 00:00N 29°57' W 093°52'0 0.0
2018-Jun-18 23:30N 29°57' W 093°52'0 0.0
2018-Jun-18 23:00N 29°57' W 093°52'0 0.0
2018-Jun-18 22:30N 29°57' W 093°52'0 0.0
2018-Jun-18 22:00N 29°57' W 093°52'0 0.0
2018-Jun-18 21:30N 29°57' W 093°52'0 0.0
2018-Jun-18 21:00N 29°57' W 093°52'0 0.0
2018-Jun-18 20:30N 29°57' W 093°52'0 0.0
2018-Jun-18 20:00N 29°57' W 093°52'0 0.0
2018-Jun-18 19:30N 29°57' W 093°52'0 0.0
2018-Jun-18 19:00N 29°57' W 093°52'0 0.0
2018-Jun-18 18:30N 29°57' W 093°52'0 0.0
2018-Jun-18 18:00N 29°57' W 093°52'0 0.0
2018-Jun-18 17:30N 29°57' W 093°52'0 0.0
2018-Jun-18 17:00N 29°57' W 093°52'0 0.0
2018-Jun-18 16:30N 29°57' W 093°52'0 0.0
2018-Jun-18 16:00N 29°57' W 093°52'0 0.0
2018-Jun-18 15:30N 29°57' W 093°52'0 0.0
2018-Jun-18 15:00N 29°57' W 093°52'0 0.0
2018-Jun-18 14:30N 29°57' W 093°52'0 0.0
2018-Jun-18 14:00N 29°57' W 093°52'0 0.0
2018-Jun-18 13:30N 29°57' W 093°52'0 0.0
2018-Jun-18 13:00N 29°57' W 093°52'0 0.0
2018-Jun-18 12:30N 29°57' W 093°52'0 0.0
2018-Jun-18 12:00N 29°57' W 093°52'0 0.0
2018-Jun-18 11:30N 29°57' W 093°52'0 0.0
2018-Jun-18 11:00N 29°57' W 093°52'0 0.0
2018-Jun-18 10:30N 29°57' W 093°52'0 0.0
2018-Jun-18 10:00N 29°57' W 093°52'0 0.0
2018-Jun-18 09:30N 29°57' W 093°52'0 0.0
2018-Jun-18 08:59N 29°57' W 093°52'0 0.0
2018-Jun-18 08:30N 29°57' W 093°52'0 0.0
2018-Jun-18 08:00N 29°57' W 093°52'0 0.0
2018-Jun-18 07:30N 29°57' W 093°52'0 0.0
2018-Jun-18 07:00N 29°57' W 093°52'0 0.0
2018-Jun-18 06:30N 29°57' W 093°52'0 0.0
2018-Jun-18 06:00N 29°57' W 093°52'0 0.0
2018-Jun-18 05:30N 29°57' W 093°52'0 0.0
2018-Jun-18 05:00N 29°57' W 093°52'0 0.0
2018-Jun-18 04:30N 29°57' W 093°52'0 0.0
2018-Jun-18 04:00N 29°57' W 093°52'0 0.0
2018-Jun-18 03:30N 29°57' W 093°52'0 0.0
2018-Jun-18 03:00N 29°57' W 093°52'0 0.0
2018-Jun-18 02:30N 29°57' W 093°52'0 0.0
2018-Jun-18 02:00N 29°57' W 093°52'0 0.0
2018-Jun-18 01:30N 29°57' W 093°52'0 0.0
2018-Jun-18 01:00N 29°57' W 093°52'0 0.0
2018-Jun-18 00:30N 29°57' W 093°52'0 0.0
2018-Jun-18 00:00N 29°57' W 093°52'0 0.0
2018-Jun-17 23:30N 29°57' W 093°52'0 0.0
2018-Jun-17 23:00N 29°57' W 093°52'0 0.0
2018-Jun-17 22:30N 29°57' W 093°52'0 0.0
2018-Jun-17 22:00N 29°57' W 093°52'0 0.0
2018-Jun-17 21:30N 29°57' W 093°52'0 0.0
2018-Jun-17 20:59N 29°57' W 093°52'0 0.0
2018-Jun-17 20:30N 29°57' W 093°52'0 0.0
2018-Jun-17 20:00N 29°57' W 093°52'0 0.0
2018-Jun-17 19:30N 29°57' W 093°52'0 0.0
2018-Jun-17 19:00N 29°57' W 093°52'0 0.0
2018-Jun-17 18:30N 29°57' W 093°52'0 0.0
2018-Jun-17 18:00N 29°57' W 093°52'0 0.0
2018-Jun-17 17:30N 29°57' W 093°52'0 0.0
2018-Jun-17 17:00N 29°57' W 093°52'0 0.0
2018-Jun-17 16:30N 29°57' W 093°52'0 0.0
2018-Jun-17 16:00N 29°57' W 093°52'0 0.0
2018-Jun-17 15:30N 29°57' W 093°52'0 0.0
2018-Jun-17 15:00N 29°57' W 093°52'0 0.0
2018-Jun-17 14:30N 29°57' W 093°52'0 0.0
2018-Jun-17 14:00N 29°57' W 093°52'0 0.0
2018-Jun-17 13:29N 29°57' W 093°52'0 0.0
2018-Jun-17 13:00N 29°57' W 093°52'0 0.0
2018-Jun-17 12:30N 29°57' W 093°52'0 0.0
2018-Jun-17 12:00N 29°57' W 093°52'0 0.0
2018-Jun-17 11:30N 29°57' W 093°52'0 0.0
2018-Jun-17 11:00N 29°57' W 093°52'0 0.0
2018-Jun-17 10:30N 29°57' W 093°52'0 0.0
2018-Jun-17 10:00N 29°57' W 093°52'0 0.0
2018-Jun-17 09:30N 29°57' W 093°52'0 0.0
2018-Jun-17 09:00N 29°57' W 093°52'0 0.0
2018-Jun-17 08:30N 29°57' W 093°52'0 0.0
2018-Jun-17 07:59N 29°57' W 093°52'0 0.0
2018-Jun-17 07:30N 29°57' W 093°52'0 0.0
2018-Jun-17 07:00N 29°57' W 093°52'0 0.0
2018-Jun-17 06:30N 29°57' W 093°52'0 0.0
2018-Jun-17 06:00N 29°57' W 093°52'0 0.0
2018-Jun-17 05:30N 29°57' W 093°52'0 0.0
2018-Jun-17 05:00N 29°57' W 093°52'0 0.0
2018-Jun-17 04:30N 29°57' W 093°52'0 0.0
2018-Jun-17 04:00N 29°57' W 093°52'0 0.0
2018-Jun-17 03:30N 29°57' W 093°52'0 0.0
2018-Jun-17 03:00N 29°57' W 093°52'0 0.0
2018-Jun-17 02:30N 29°57' W 093°52'0 0.0
2018-Jun-17 02:00N 29°57' W 093°52'0 0.0
2018-Jun-17 01:30N 29°57' W 093°52'0 0.0
2018-Jun-17 01:00N 29°57' W 093°52'0 0.0
2018-Jun-17 00:30N 29°57' W 093°52'0 0.0
2018-Jun-17 00:00N 29°57' W 093°52'0 0.0
2018-Jun-16 23:30N 29°57' W 093°52'0 0.0
2018-Jun-16 23:00N 29°57' W 093°52'0 0.0
2018-Jun-16 22:30N 29°57' W 093°52'0 0.0
2018-Jun-16 22:00N 29°57' W 093°52'0 0.0
2018-Jun-16 21:30N 29°57' W 093°52'0 0.0
2018-Jun-16 21:00N 29°57' W 093°52'0 0.0
2018-Jun-16 20:30N 29°57' W 093°52'0 0.0
2018-Jun-16 20:00N 29°57' W 093°52'0 0.0
2018-Jun-16 19:30N 29°57' W 093°52'0 0.0
2018-Jun-16 19:00N 29°57' W 093°52'0 0.0
2018-Jun-16 18:30N 29°57' W 093°52'0 0.0
2018-Jun-16 18:00N 29°57' W 093°52'0 0.0
2018-Jun-16 17:30N 29°57' W 093°52'0 0.0
2018-Jun-16 17:00N 29°57' W 093°52'0 0.0
2018-Jun-16 16:30N 29°57' W 093°52'0 0.0
2018-Jun-16 16:00N 29°57' W 093°52'0 0.0
2018-Jun-16 15:30N 29°57' W 093°52'0 0.0
2018-Jun-16 15:00N 29°57' W 093°52'0 0.0
2018-Jun-16 14:30N 29°57' W 093°52'0 0.0
2018-Jun-16 14:00N 29°57' W 093°52'0 0.0
2018-Jun-16 13:30N 29°57' W 093°52'0 0.0
2018-Jun-16 13:00N 29°57' W 093°52'0 0.0
2018-Jun-16 12:30N 29°57' W 093°52'0 0.0
2018-Jun-16 12:00N 29°57' W 093°52'0 0.0
2018-Jun-16 11:30N 29°57' W 093°52'0 0.0
2018-Jun-16 11:00N 29°57' W 093°52'0 0.0
2018-Jun-16 10:30N 29°57' W 093°52'0 0.0
2018-Jun-16 10:00N 29°57' W 093°52'0 0.0
2018-Jun-16 09:30N 29°57' W 093°52'0 0.0
2018-Jun-16 09:00N 29°57' W 093°52'0 0.0
2018-Jun-16 08:30N 29°57' W 093°52'0 0.0
2018-Jun-16 08:00N 29°57' W 093°52'0 0.0
2018-Jun-16 07:30N 29°57' W 093°52'0 0.0
2018-Jun-16 07:00N 29°57' W 093°52'0 0.0
2018-Jun-16 06:30N 29°57' W 093°52'0 0.0
2018-Jun-16 06:00N 29°57' W 093°52'0 0.0
2018-Jun-16 05:30N 29°57' W 093°52'0 0.0
2018-Jun-16 05:00N 29°57' W 093°52'0 0.0
2018-Jun-16 04:30N 29°57' W 093°52'0 0.0
2018-Jun-16 04:00N 29°57' W 093°52'0 0.0
2018-Jun-16 03:30N 29°57' W 093°52'0 0.0
2018-Jun-16 03:00N 29°57' W 093°52'0 0.0
2018-Jun-16 02:30N 29°57' W 093°52'0 0.0
2018-Jun-16 02:00N 29°57' W 093°52'0 0.0
2018-Jun-16 01:30N 29°57' W 093°52'0 0.0
2018-Jun-16 01:00N 29°57' W 093°52'0 0.0
2018-Jun-16 00:30N 29°57' W 093°52'0 0.0
2018-Jun-16 00:00N 29°57' W 093°52'0 0.0
2018-Jun-15 23:30N 29°57' W 093°52'0 0.0
2018-Jun-15 23:00N 29°57' W 093°52'0 0.0
2018-Jun-15 22:30N 29°57' W 093°52'0 0.0
2018-Jun-15 22:00N 29°57' W 093°52'0 0.0
2018-Jun-15 21:30N 29°57' W 093°52'0 0.0
2018-Jun-15 20:59N 29°57' W 093°52'0 0.0
2018-Jun-15 20:30N 29°57' W 093°52'0 0.0
2018-Jun-15 20:00N 29°57' W 093°52'0 0.0
2018-Jun-15 19:30N 29°57' W 093°52'0 0.0
2018-Jun-15 19:00N 29°57' W 093°52'0 0.0
2018-Jun-15 18:30N 29°57' W 093°52'0 0.0
2018-Jun-15 18:00N 29°57' W 093°52'0 0.0
2018-Jun-15 17:30N 29°57' W 093°52'0 0.0
2018-Jun-15 17:00N 29°57' W 093°52'0 0.0
2018-Jun-15 16:30N 29°57' W 093°52'0 0.0
2018-Jun-15 16:00N 29°57' W 093°52'0 0.0
2018-Jun-15 15:30N 29°57' W 093°52'0 0.0
2018-Jun-15 15:00N 29°57' W 093°52'0 0.0
2018-Jun-15 14:30N 29°57' W 093°52'0 0.0
2018-Jun-15 14:00N 29°57' W 093°52'0 0.0
2018-Jun-15 13:30N 29°57' W 093°52'1 1.2
2018-Jun-15 13:00N 29°58' W 093°52'0 0.0
2018-Jun-15 12:30N 29°58' W 093°52'1 1.2
2018-Jun-15 12:00N 29°57' W 093°52'0 0.0
2018-Jun-15 11:30N 29°57' W 093°52'0 0.0
2018-Jun-15 11:00N 29°57' W 093°52'0 0.0
2018-Jun-15 10:30N 29°57' W 093°52'0 0.0
2018-Jun-15 10:00N 29°57' W 093°52'0 0.0
2018-Jun-15 09:30N 29°57' W 093°52'0 0.0
2018-Jun-15 09:00N 29°57' W 093°52'0 0.0
2018-Jun-15 08:30N 29°57' W 093°52'0 0.0
2018-Jun-15 08:00N 29°57' W 093°52'0 0.0
2018-Jun-15 07:30N 29°57' W 093°52'0 0.0
2018-Jun-15 07:00N 29°57' W 093°52'0 0.0
2018-Jun-15 06:30N 29°57' W 093°52'0 0.0
2018-Jun-15 06:00N 29°57' W 093°52'0 0.0
2018-Jun-15 05:30N 29°57' W 093°52'0 0.0
2018-Jun-15 05:00N 29°57' W 093°52'0 0.0
2018-Jun-15 04:30N 29°57' W 093°52'0 0.0
2018-Jun-15 04:00N 29°57' W 093°52'0 0.0
2018-Jun-15 03:30N 29°57' W 093°52'0 0.0
2018-Jun-15 03:00N 29°57' W 093°52'0 0.0
2018-Jun-15 02:30N 29°57' W 093°52'0 0.0
2018-Jun-15 02:00N 29°57' W 093°52'1 1.8
2018-Jun-15 01:30N 29°58' W 093°52'0 0.0
2018-Jun-15 01:00N 29°58' W 093°52'0 0.0
2018-Jun-15 00:30N 29°58' W 093°52'0 0.0
2018-Jun-14 23:59N 29°58' W 093°52'0 0.0
2018-Jun-14 23:30N 29°58' W 093°52'0 0.0
2018-Jun-14 23:00N 29°58' W 093°52'1 1.8
2018-Jun-14 22:30N 29°57' W 093°52'0 0.0
2018-Jun-14 22:00N 29°57' W 093°52'0 0.0
2018-Jun-14 21:30N 29°57' W 093°52'0 0.0
2018-Jun-14 21:00N 29°57' W 093°52'0 0.0
2018-Jun-14 20:30N 29°57' W 093°52'0 0.0
2018-Jun-14 20:00N 29°57' W 093°52'0 0.0
2018-Jun-14 19:30N 29°57' W 093°52'0 0.0
2018-Jun-14 19:00N 29°57' W 093°52'0 0.0
2018-Jun-14 18:30N 29°57' W 093°52'0 0.0
2018-Jun-14 18:00N 29°57' W 093°52'0 0.0
2018-Jun-14 17:30N 29°57' W 093°52'0 0.0
2018-Jun-14 17:00N 29°57' W 093°52'0 0.0
2018-Jun-14 16:30N 29°57' W 093°52'0 0.0
2018-Jun-14 16:00N 29°57' W 093°52'0 0.0
2018-Jun-14 15:30N 29°57' W 093°52'0 0.0
2018-Jun-14 15:00N 29°57' W 093°52'0 0.0
2018-Jun-14 14:30N 29°57' W 093°52'0 0.0
2018-Jun-14 14:00N 29°57' W 093°52'0 0.0
2018-Jun-14 13:30N 29°57' W 093°52'0 0.9
2018-Jun-14 13:00N 29°57' W 093°52'2 4.0
2018-Jun-14 12:30N 29°59' W 093°52'3 6.2
2018-Jun-14 12:00N 29°59' W 093°56'2 4.7
2018-Jun-14 11:30N 30°01' W 093°58'1 2.3
2018-Jun-14 11:00N 30°01' W 093°59'0 0.0
2018-Jun-14 10:30N 30°01' W 093°59'0 0.0
2018-Jun-14 10:00N 30°01' W 093°59'0 0.0
2018-Jun-14 09:30N 30°01' W 093°59'0 0.0
2018-Jun-14 09:00N 30°01' W 093°59'0 0.0
2018-Jun-14 08:30N 30°01' W 093°59'0 0.0
2018-Jun-14 08:00N 30°01' W 093°59'0 0.0
2018-Jun-14 07:30N 30°01' W 093°59'0 0.0
2018-Jun-14 07:00N 30°01' W 093°59'0 0.0
2018-Jun-14 06:30N 30°01' W 093°59'0 0.0
2018-Jun-14 06:00N 30°01' W 093°59'0 0.0
2018-Jun-14 05:30N 30°01' W 093°59'0 0.0
2018-Jun-14 05:00N 30°01' W 093°59'0 0.0
2018-Jun-14 04:30N 30°01' W 093°59'0 0.0
2018-Jun-14 04:00N 30°01' W 093°59'0 0.0
2018-Jun-14 03:30N 30°01' W 093°59'0 0.0
2018-Jun-14 03:00N 30°01' W 093°59'0 0.0
2018-Jun-14 02:30N 30°01' W 093°59'0 0.0
2018-Jun-14 02:00N 30°01' W 093°59'0 0.0
2018-Jun-14 01:30N 30°01' W 093°59'0 0.0
2018-Jun-14 01:00N 30°01' W 093°59'0 0.0
2018-Jun-14 00:30N 30°01' W 093°59'0 0.0
2018-Jun-13 23:59N 30°01' W 093°59'0 0.0
2018-Jun-13 23:30N 30°01' W 093°59'0 0.0
2018-Jun-13 23:00N 30°01' W 093°59'0 0.0
2018-Jun-13 22:30N 30°01' W 093°59'0 0.0
2018-Jun-13 22:00N 30°01' W 093°59'0 0.0
2018-Jun-13 21:30N 30°01' W 093°59'0 0.0
2018-Jun-13 20:59N 30°01' W 093°59'0 0.0
2018-Jun-13 20:30N 30°01' W 093°59'0 0.0
2018-Jun-13 20:00N 30°01' W 093°59'0 0.0
2018-Jun-13 19:30N 30°01' W 093°59'0 0.0
2018-Jun-13 19:00N 30°01' W 093°59'0 0.0
2018-Jun-13 18:30N 30°01' W 093°59'0 0.0
2018-Jun-13 18:00N 30°01' W 093°59'0 0.0
2018-Jun-13 17:30N 30°01' W 093°59'0 0.0
2018-Jun-13 17:00N 30°01' W 093°59'0 0.0
2018-Jun-13 16:30N 30°01' W 093°59'0 0.0
2018-Jun-13 16:00N 30°01' W 093°59'0 0.0
2018-Jun-13 15:30N 30°01' W 093°59'0 0.0
2018-Jun-13 15:00N 30°01' W 093°59'0 0.0
2018-Jun-13 14:30N 30°01' W 093°59'0 0.0
2018-Jun-13 14:00N 30°01' W 093°59'0 0.6
2018-Jun-13 13:30N 30°01' W 093°59'0 0.1
2018-Jun-13 13:00N 30°01' W 093°59'0 0.1
2018-Jun-13 12:30N 30°01' W 093°59'0 0.0
2018-Jun-13 12:00N 30°01' W 093°59'0 0.0
2018-Jun-13 11:30N 30°01' W 093°59'1 2.1
2018-Jun-13 11:00N 30°01' W 093°58'3 6.0
2018-Jun-13 10:30N 29°59' W 093°55'3 5.9
2018-Jun-13 10:00N 29°59' W 093°51'2 4.0
2018-Jun-13 09:30N 29°59' W 093°49'3 5.2
2018-Jun-13 09:00N 29°60' W 093°46'3 5.3
2018-Jun-13 08:30N 30°02' W 093°44'2 4.9
2018-Jun-13 08:00N 30°03' W 093°42'10 5.1
2018-Jun-13 06:08N 30°04' W 093°31'1 4.4
2018-Jun-13 05:57N 30°04' W 093°30'2 4.5
2018-Jun-13 05:30N 30°04' W 093°28'2 4.5
2018-Jun-13 05:00N 30°04' W 093°25'2 3.7
2018-Jun-13 04:30N 30°04' W 093°23'2 3.4
2018-Jun-13 04:00N 30°04' W 093°21'2 3.2
2018-Jun-13 03:30N 30°05' W 093°20'2 3.5
2018-Jun-13 03:00N 30°06' W 093°18'1 2.4
2018-Jun-13 02:30N 30°05' W 093°17'1 1.3
2018-Jun-13 02:00N 30°05' W 093°17'0 0.1
2018-Jun-13 01:30N 30°05' W 093°17'0 0.0
2018-Jun-13 01:00N 30°05' W 093°17'0 0.0
2018-Jun-13 00:30N 30°05' W 093°17'0 0.0
2018-Jun-13 00:01N 30°05' W 093°17'0 0.1
2018-Jun-12 23:31N 30°05' W 093°17'0 0.0
2018-Jun-12 23:00N 30°05' W 093°17'0 0.1
2018-Jun-12 22:30N 30°05' W 093°17'0 0.0
2018-Jun-12 22:00N 30°05' W 093°17'0 0.0
2018-Jun-12 21:30N 30°05' W 093°17'0 0.0
2018-Jun-12 21:00N 30°05' W 093°17'0 0.0
2018-Jun-12 20:30N 30°05' W 093°17'0 0.0
2018-Jun-12 20:00N 30°05' W 093°17'0 0.0
2018-Jun-12 19:30N 30°05' W 093°17'0 0.0
2018-Jun-12 19:00N 30°05' W 093°17'0 0.0
2018-Jun-12 18:30N 30°05' W 093°17'0 0.0
2018-Jun-12 18:00N 30°05' W 093°17'0 0.1
2018-Jun-12 17:30N 30°05' W 093°17'0 0.0
2018-Jun-12 17:00N 30°05' W 093°17'0 0.0
2018-Jun-12 16:30N 30°05' W 093°17'0 0.0
2018-Jun-12 15:59N 30°05' W 093°17'0 0.2
2018-Jun-12 15:30N 30°05' W 093°17'0 0.0
2018-Jun-12 15:00N 30°05' W 093°17'0 0.0
2018-Jun-12 14:30N 30°05' W 093°17'0 0.0
2018-Jun-12 14:00N 30°05' W 093°17'0 0.0
2018-Jun-12 13:30N 30°05' W 093°17'0 0.1
2018-Jun-12 13:00N 30°05' W 093°17'0 0.5
2018-Jun-12 12:30N 30°05' W 093°16'1 1.8
2018-Jun-12 12:00N 30°04' W 093°16'0 0.1
2018-Jun-12 11:30N 30°04' W 093°16'0 0.0
2018-Jun-12 11:00N 30°04' W 093°16'0 0.1
2018-Jun-12 10:30N 30°04' W 093°16'0 0.0
2018-Jun-12 10:00N 30°04' W 093°16'0 0.1
2018-Jun-12 09:30N 30°04' W 093°16'1 1.0
2018-Jun-12 09:00N 30°03' W 093°16'1 2.1
2018-Jun-12 08:30N 30°02' W 093°15'2 3.1
2018-Jun-12 08:00N 30°01' W 093°14'2 3.2
2018-Jun-12 07:30N 29°60' W 093°13'0 0.5
2018-Jun-12 07:00N 29°60' W 093°13'0 0.0
2018-Jun-12 06:30N 29°60' W 093°13'0 0.0
2018-Jun-12 06:00N 29°60' W 093°13'0 0.0
2018-Jun-12 05:30N 29°60' W 093°13'0 0.0
2018-Jun-12 05:00N 29°60' W 093°13'0 0.1
2018-Jun-12 04:30N 29°60' W 093°13'0 0.0
2018-Jun-12 04:00N 29°60' W 093°13'1 1.1
2018-Jun-12 03:30N 29°59' W 093°13'2 4.5
2018-Jun-12 03:00N 29°57' W 093°11'2 4.2
2018-Jun-12 02:30N 29°56' W 093°09'43 4.3
2018-Jun-11 16:39N 29°51' W 092°20'1 4.7
2018-Jun-11 16:30N 29°50' W 092°19'2 4.1
2018-Jun-11 16:00N 29°49' W 092°17'2 4.3
2018-Jun-11 15:30N 29°48' W 092°15'2 4.9
2018-Jun-11 15:00N 29°47' W 092°13'1 1.3
2018-Jun-11 14:30N 29°47' W 092°12'1 1.3
2018-Jun-11 14:00N 29°47' W 092°11'1 2.9
2018-Jun-11 13:30N 29°47' W 092°10'3 5.4
2018-Jun-11 13:00N 29°48' W 092°07'3 5.0
2018-Jun-11 12:30N 29°48' W 092°04'3 5.1
2018-Jun-11 12:00N 29°49' W 092°01'3 5.3
2018-Jun-11 11:29N 29°50' W 091°58'  
Track history (hours):
 
Tides and Currents Weather Stations Pressure Air Temp Water Temp Dewpoint Dewpoint Depression Visibility Wind Speed Wind Dir Waves Ship Positions

Ems Express

Owner: Marquette Transportation Company Gulf-Inland, LLC, Jefferson, LA. More information available from US FCC via Universal Licensing System and Coast Guard Vessel Documentation Center.

Last reported at 2018-Jun-20 05:52 UTC. Time now 2018-Jun-20 09:47 UTC.
Position N 29°56' W 093°04'.

Length 22 m; draft 2.9 m.

Type: . MMSI: 367059310.

Date/timePositionNaut miles runAvg speedWind from/ knotsBaromVisibWave heightAir tempDewpointWater temp
2018-Jun-20 05:52N 29°56' W 093°04'2 3.9
2018-Jun-20 05:26N 29°56' W 093°06'1 3.0
2018-Jun-20 04:58N 29°56' W 093°08'2 3.6
2018-Jun-20 04:30N 29°56' W 093°10'3 6.2
2018-Jun-20 04:00N 29°59' W 093°12'2 4.6
2018-Jun-20 03:30N 30°01' W 093°14'2 3.7
2018-Jun-20 03:00N 30°02' W 093°15'2 3.2
2018-Jun-20 02:30N 30°03' W 093°16'2 4.1
2018-Jun-20 02:00N 30°05' W 093°17'1 1.3
2018-Jun-20 01:30N 30°05' W 093°18'1 1.4
2018-Jun-20 01:00N 30°06' W 093°18'0 0.1
2018-Jun-20 00:30N 30°06' W 093°18'0 0.0
2018-Jun-20 00:00N 30°06' W 093°18'0 0.0
2018-Jun-19 23:30N 30°06' W 093°18'0 0.0
2018-Jun-19 23:00N 30°06' W 093°18'0 0.1
2018-Jun-19 22:30N 30°06' W 093°18'0 0.1
2018-Jun-19 22:00N 30°06' W 093°18'0 0.0
2018-Jun-19 21:30N 30°06' W 093°18'0 0.0
2018-Jun-19 21:00N 30°06' W 093°18'0 0.0
2018-Jun-19 20:30N 30°06' W 093°18'0 0.0
2018-Jun-19 20:00N 30°06' W 093°18'0 0.0
2018-Jun-19 19:30N 30°06' W 093°18'0 0.0
2018-Jun-19 19:00N 30°06' W 093°18'0 0.0
2018-Jun-19 18:30N 30°06' W 093°18'0 0.0
2018-Jun-19 18:00N 30°06' W 093°18'0 0.0
2018-Jun-19 17:30N 30°06' W 093°18'0 0.0
2018-Jun-19 16:59N 30°06' W 093°18'0 0.0
2018-Jun-19 16:30N 30°06' W 093°18'0 0.1
2018-Jun-19 16:00N 30°06' W 093°18'0 0.0
2018-Jun-19 15:30N 30°06' W 093°18'0 0.0
2018-Jun-19 15:00N 30°06' W 093°18'0 0.0
2018-Jun-19 14:30N 30°06' W 093°18'0 0.0
2018-Jun-19 14:00N 30°06' W 093°18'0 0.0
2018-Jun-19 13:30N 30°06' W 093°18'0 0.0
2018-Jun-19 13:00N 30°06' W 093°18'0 0.0
2018-Jun-19 12:30N 30°06' W 093°18'0 0.1
2018-Jun-19 12:00N 30°06' W 093°18'0 0.0
2018-Jun-19 11:30N 30°06' W 093°18'1 2.6
2018-Jun-19 11:00N 30°05' W 093°20'3 5.1
2018-Jun-19 10:30N 30°04' W 093°22'2 4.6
2018-Jun-19 10:00N 30°04' W 093°24'1 2.6
2018-Jun-19 09:30N 30°04' W 093°26'0 0.0
2018-Jun-19 09:00N 30°04' W 093°26'0 0.0
2018-Jun-19 08:30N 30°04' W 093°26'2 3.5
2018-Jun-19 08:00N 30°04' W 093°28'0 0.0
2018-Jun-19 07:30N 30°04' W 093°28'0 0.0
2018-Jun-19 07:00N 30°04' W 093°28'0 0.0
2018-Jun-19 06:30N 30°04' W 093°28'0 0.0
2018-Jun-19 06:00N 30°04' W 093°28'0 0.0
2018-Jun-19 05:30N 30°04' W 093°28'0 0.0
2018-Jun-19 05:00N 30°04' W 093°28'0 0.2
2018-Jun-19 04:30N 30°04' W 093°28'3 6.0
2018-Jun-19 04:00N 30°04' W 093°31'8 6.3
2018-Jun-19 02:47N 30°04' W 093°40'2 5.6
2018-Jun-19 02:27N 30°03' W 093°42'3 5.6
2018-Jun-19 02:00N 30°01' W 093°44'3 6.6
2018-Jun-19 01:30N 29°59' W 093°47'3 6.8
2018-Jun-19 01:00N 29°58' W 093°51'1 2.5
2018-Jun-19 00:30N 29°57' W 093°52'0 0.0
2018-Jun-19 00:00N 29°57' W 093°52'0 0.0
2018-Jun-18 23:30N 29°57' W 093°52'0 0.0
2018-Jun-18 23:00N 29°57' W 093°52'0 0.0
2018-Jun-18 22:30N 29°57' W 093°52'0 0.0
2018-Jun-18 22:00N 29°57' W 093°52'0 0.0
2018-Jun-18 21:30N 29°57' W 093°52'0 0.0
2018-Jun-18 21:00N 29°57' W 093°52'0 0.0
2018-Jun-18 20:30N 29°57' W 093°52'0 0.0
2018-Jun-18 20:00N 29°57' W 093°52'0 0.0
2018-Jun-18 19:30N 29°57' W 093°52'0 0.0
2018-Jun-18 19:00N 29°57' W 093°52'0 0.0
2018-Jun-18 18:30N 29°57' W 093°52'0 0.0
2018-Jun-18 18:00N 29°57' W 093°52'0 0.0
2018-Jun-18 17:30N 29°57' W 093°52'0 0.0
2018-Jun-18 17:00N 29°57' W 093°52'0 0.0
2018-Jun-18 16:30N 29°57' W 093°52'0 0.0
2018-Jun-18 16:00N 29°57' W 093°52'0 0.0
2018-Jun-18 15:30N 29°57' W 093°52'0 0.0
2018-Jun-18 15:00N 29°57' W 093°52'0 0.0
2018-Jun-18 14:30N 29°57' W 093°52'0 0.0
2018-Jun-18 14:00N 29°57' W 093°52'0 0.0
2018-Jun-18 13:30N 29°57' W 093°52'0 0.0
2018-Jun-18 13:00N 29°57' W 093°52'0 0.0
2018-Jun-18 12:30N 29°57' W 093°52'0 0.0
2018-Jun-18 12:00N 29°57' W 093°52'0 0.0
2018-Jun-18 11:30N 29°57' W 093°52'0 0.0
2018-Jun-18 11:00N 29°57' W 093°52'0 0.0
2018-Jun-18 10:30N 29°57' W 093°52'0 0.0
2018-Jun-18 10:00N 29°57' W 093°52'0 0.0
2018-Jun-18 09:30N 29°57' W 093°52'0 0.0
2018-Jun-18 08:59N 29°57' W 093°52'0 0.0
2018-Jun-18 08:30N 29°57' W 093°52'0 0.0
2018-Jun-18 08:00N 29°57' W 093°52'0 0.0
2018-Jun-18 07:30N 29°57' W 093°52'0 0.0
2018-Jun-18 07:00N 29°57' W 093°52'0 0.0
2018-Jun-18 06:30N 29°57' W 093°52'0 0.0
2018-Jun-18 06:00N 29°57' W 093°52'0 0.0
2018-Jun-18 05:30N 29°57' W 093°52'0 0.0
2018-Jun-18 05:00N 29°57' W 093°52'0 0.0
2018-Jun-18 04:30N 29°57' W 093°52'0 0.0
2018-Jun-18 04:00N 29°57' W 093°52'0 0.0
2018-Jun-18 03:30N 29°57' W 093°52'0 0.0
2018-Jun-18 03:00N 29°57' W 093°52'0 0.0
2018-Jun-18 02:30N 29°57' W 093°52'0 0.0
2018-Jun-18 02:00N 29°57' W 093°52'0 0.0
2018-Jun-18 01:30N 29°57' W 093°52'0 0.0
2018-Jun-18 01:00N 29°57' W 093°52'0 0.0
2018-Jun-18 00:30N 29°57' W 093°52'0 0.0
2018-Jun-18 00:00N 29°57' W 093°52'0 0.0
2018-Jun-17 23:30N 29°57' W 093°52'0 0.0
2018-Jun-17 23:00N 29°57' W 093°52'0 0.0
2018-Jun-17 22:30N 29°57' W 093°52'0 0.0
2018-Jun-17 22:00N 29°57' W 093°52'0 0.0
2018-Jun-17 21:30N 29°57' W 093°52'0 0.0
2018-Jun-17 20:59N 29°57' W 093°52'0 0.0
2018-Jun-17 20:30N 29°57' W 093°52'0 0.0
2018-Jun-17 20:00N 29°57' W 093°52'0 0.0
2018-Jun-17 19:30N 29°57' W 093°52'0 0.0
2018-Jun-17 19:00N 29°57' W 093°52'0 0.0
2018-Jun-17 18:30N 29°57' W 093°52'0 0.0
2018-Jun-17 18:00N 29°57' W 093°52'0 0.0
2018-Jun-17 17:30N 29°57' W 093°52'0 0.0
2018-Jun-17 17:00N 29°57' W 093°52'0 0.0
2018-Jun-17 16:30N 29°57' W 093°52'0 0.0
2018-Jun-17 16:00N 29°57' W 093°52'0 0.0
2018-Jun-17 15:30N 29°57' W 093°52'0 0.0
2018-Jun-17 15:00N 29°57' W 093°52'0 0.0
2018-Jun-17 14:30N 29°57' W 093°52'0 0.0
2018-Jun-17 14:00N 29°57' W 093°52'0 0.0
2018-Jun-17 13:29N 29°57' W 093°52'0 0.0
2018-Jun-17 13:00N 29°57' W 093°52'0 0.0
2018-Jun-17 12:30N 29°57' W 093°52'0 0.0
2018-Jun-17 12:00N 29°57' W 093°52'0 0.0
2018-Jun-17 11:30N 29°57' W 093°52'0 0.0
2018-Jun-17 11:00N 29°57' W 093°52'0 0.0
2018-Jun-17 10:30N 29°57' W 093°52'0 0.0
2018-Jun-17 10:00N 29°57' W 093°52'0 0.0
2018-Jun-17 09:30N 29°57' W 093°52'0 0.0
2018-Jun-17 09:00N 29°57' W 093°52'0 0.0
2018-Jun-17 08:30N 29°57' W 093°52'0 0.0
2018-Jun-17 07:59N 29°57' W 093°52'0 0.0
2018-Jun-17 07:30N 29°57' W 093°52'0 0.0
2018-Jun-17 07:00N 29°57' W 093°52'0 0.0
2018-Jun-17 06:30N 29°57' W 093°52'0 0.0
2018-Jun-17 06:00N 29°57' W 093°52'0 0.0
2018-Jun-17 05:30N 29°57' W 093°52'0 0.0
2018-Jun-17 05:00N 29°57' W 093°52'0 0.0
2018-Jun-17 04:30N 29°57' W 093°52'0 0.0
2018-Jun-17 04:00N 29°57' W 093°52'0 0.0
2018-Jun-17 03:30N 29°57' W 093°52'0 0.0
2018-Jun-17 03:00N 29°57' W 093°52'0 0.0
2018-Jun-17 02:30N 29°57' W 093°52'0 0.0
2018-Jun-17 02:00N 29°57' W 093°52'0 0.0
2018-Jun-17 01:30N 29°57' W 093°52'0 0.0
2018-Jun-17 01:00N 29°57' W 093°52'0 0.0
2018-Jun-17 00:30N 29°57' W 093°52'0 0.0
2018-Jun-17 00:00N 29°57' W 093°52'0 0.0
2018-Jun-16 23:30N 29°57' W 093°52'0 0.0
2018-Jun-16 23:00N 29°57' W 093°52'0 0.0
2018-Jun-16 22:30N 29°57' W 093°52'0 0.0
2018-Jun-16 22:00N 29°57' W 093°52'0 0.0
2018-Jun-16 21:30N 29°57' W 093°52'0 0.0
2018-Jun-16 21:00N 29°57' W 093°52'0 0.0
2018-Jun-16 20:30N 29°57' W 093°52'0 0.0
2018-Jun-16 20:00N 29°57' W 093°52'0 0.0
2018-Jun-16 19:30N 29°57' W 093°52'0 0.0
2018-Jun-16 19:00N 29°57' W 093°52'0 0.0
2018-Jun-16 18:30N 29°57' W 093°52'0 0.0
2018-Jun-16 18:00N 29°57' W 093°52'0 0.0
2018-Jun-16 17:30N 29°57' W 093°52'0 0.0
2018-Jun-16 17:00N 29°57' W 093°52'0 0.0
2018-Jun-16 16:30N 29°57' W 093°52'0 0.0
2018-Jun-16 16:00N 29°57' W 093°52'0 0.0
2018-Jun-16 15:30N 29°57' W 093°52'0 0.0
2018-Jun-16 15:00N 29°57' W 093°52'0 0.0
2018-Jun-16 14:30N 29°57' W 093°52'0 0.0
2018-Jun-16 14:00N 29°57' W 093°52'0 0.0
2018-Jun-16 13:30N 29°57' W 093°52'0 0.0
2018-Jun-16 13:00N 29°57' W 093°52'0 0.0
2018-Jun-16 12:30N 29°57' W 093°52'0 0.0
2018-Jun-16 12:00N 29°57' W 093°52'0 0.0
2018-Jun-16 11:30N 29°57' W 093°52'0 0.0
2018-Jun-16 11:00N 29°57' W 093°52'0 0.0
2018-Jun-16 10:30N 29°57' W 093°52'0 0.0
2018-Jun-16 10:00N 29°57' W 093°52'0 0.0
2018-Jun-16 09:30N 29°57' W 093°52'0 0.0
2018-Jun-16 09:00N 29°57' W 093°52'0 0.0
2018-Jun-16 08:30N 29°57' W 093°52'0 0.0
2018-Jun-16 08:00N 29°57' W 093°52'0 0.0
2018-Jun-16 07:30N 29°57' W 093°52'0 0.0
2018-Jun-16 07:00N 29°57' W 093°52'0 0.0
2018-Jun-16 06:30N 29°57' W 093°52'0 0.0
2018-Jun-16 06:00N 29°57' W 093°52'0 0.0
2018-Jun-16 05:30N 29°57' W 093°52'0 0.0
2018-Jun-16 05:00N 29°57' W 093°52'0 0.0
2018-Jun-16 04:30N 29°57' W 093°52'0 0.0
2018-Jun-16 04:00N 29°57' W 093°52'0 0.0
2018-Jun-16 03:30N 29°57' W 093°52'0 0.0
2018-Jun-16 03:00N 29°57' W 093°52'0 0.0
2018-Jun-16 02:30N 29°57' W 093°52'0 0.0
2018-Jun-16 02:00N 29°57' W 093°52'0 0.0
2018-Jun-16 01:30N 29°57' W 093°52'0 0.0
2018-Jun-16 01:00N 29°57' W 093°52'0 0.0
2018-Jun-16 00:30N 29°57' W 093°52'0 0.0
2018-Jun-16 00:00N 29°57' W 093°52'0 0.0
2018-Jun-15 23:30N 29°57' W 093°52'0 0.0
2018-Jun-15 23:00N 29°57' W 093°52'0 0.0
2018-Jun-15 22:30N 29°57' W 093°52'0 0.0
2018-Jun-15 22:00N 29°57' W 093°52'0 0.0
2018-Jun-15 21:30N 29°57' W 093°52'0 0.0
2018-Jun-15 20:59N 29°57' W 093°52'0 0.0
2018-Jun-15 20:30N 29°57' W 093°52'0 0.0
2018-Jun-15 20:00N 29°57' W 093°52'0 0.0
2018-Jun-15 19:30N 29°57' W 093°52'0 0.0
2018-Jun-15 19:00N 29°57' W 093°52'0 0.0
2018-Jun-15 18:30N 29°57' W 093°52'0 0.0
2018-Jun-15 18:00N 29°57' W 093°52'0 0.0
2018-Jun-15 17:30N 29°57' W 093°52'0 0.0
2018-Jun-15 17:00N 29°57' W 093°52'0 0.0
2018-Jun-15 16:30N 29°57' W 093°52'0 0.0
2018-Jun-15 16:00N 29°57' W 093°52'0 0.0
2018-Jun-15 15:30N 29°57' W 093°52'0 0.0
2018-Jun-15 15:00N 29°57' W 093°52'0 0.0
2018-Jun-15 14:30N 29°57' W 093°52'0 0.0
2018-Jun-15 14:00N 29°57' W 093°52'0 0.0
2018-Jun-15 13:30N 29°57' W 093°52'1 1.2
2018-Jun-15 13:00N 29°58' W 093°52'0 0.0
2018-Jun-15 12:30N 29°58' W 093°52'1 1.2
2018-Jun-15 12:00N 29°57' W 093°52'0 0.0
2018-Jun-15 11:30N 29°57' W 093°52'0 0.0
2018-Jun-15 11:00N 29°57' W 093°52'0 0.0
2018-Jun-15 10:30N 29°57' W 093°52'0 0.0
2018-Jun-15 10:00N 29°57' W 093°52'0 0.0
2018-Jun-15 09:30N 29°57' W 093°52'0 0.0
2018-Jun-15 09:00N 29°57' W 093°52'0 0.0
2018-Jun-15 08:30N 29°57' W 093°52'0 0.0
2018-Jun-15 08:00N 29°57' W 093°52'0 0.0
2018-Jun-15 07:30N 29°57' W 093°52'0 0.0
2018-Jun-15 07:00N 29°57' W 093°52'0 0.0
2018-Jun-15 06:30N 29°57' W 093°52'0 0.0
2018-Jun-15 06:00N 29°57' W 093°52'0 0.0
2018-Jun-15 05:30N 29°57' W 093°52'0 0.0
2018-Jun-15 05:00N 29°57' W 093°52'0 0.0
2018-Jun-15 04:30N 29°57' W 093°52'0 0.0
2018-Jun-15 04:00N 29°57' W 093°52'0 0.0
2018-Jun-15 03:30N 29°57' W 093°52'0 0.0
2018-Jun-15 03:00N 29°57' W 093°52'0 0.0
2018-Jun-15 02:30N 29°57' W 093°52'0 0.0
2018-Jun-15 02:00N 29°57' W 093°52'1 1.8
2018-Jun-15 01:30N 29°58' W 093°52'0 0.0
2018-Jun-15 01:00N 29°58' W 093°52'0 0.0
2018-Jun-15 00:30N 29°58' W 093°52'0 0.0
2018-Jun-14 23:59N 29°58' W 093°52'0 0.0
2018-Jun-14 23:30N 29°58' W 093°52'0 0.0
2018-Jun-14 23:00N 29°58' W 093°52'1 1.8
2018-Jun-14 22:30N 29°57' W 093°52'0 0.0
2018-Jun-14 22:00N 29°57' W 093°52'0 0.0
2018-Jun-14 21:30N 29°57' W 093°52'0 0.0
2018-Jun-14 21:00N 29°57' W 093°52'0 0.0
2018-Jun-14 20:30N 29°57' W 093°52'0 0.0
2018-Jun-14 20:00N 29°57' W 093°52'0 0.0
2018-Jun-14 19:30N 29°57' W 093°52'0 0.0
2018-Jun-14 19:00N 29°57' W 093°52'0 0.0
2018-Jun-14 18:30N 29°57' W 093°52'0 0.0
2018-Jun-14 18:00N 29°57' W 093°52'0 0.0
2018-Jun-14 17:30N 29°57' W 093°52'0 0.0
2018-Jun-14 17:00N 29°57' W 093°52'0 0.0
2018-Jun-14 16:30N 29°57' W 093°52'0 0.0
2018-Jun-14 16:00N 29°57' W 093°52'0 0.0
2018-Jun-14 15:30N 29°57' W 093°52'0 0.0
2018-Jun-14 15:00N 29°57' W 093°52'0 0.0
2018-Jun-14 14:30N 29°57' W 093°52'0 0.0
2018-Jun-14 14:00N 29°57' W 093°52'0 0.0
2018-Jun-14 13:30N 29°57' W 093°52'0 0.9
2018-Jun-14 13:00N 29°57' W 093°52'2 4.0
2018-Jun-14 12:30N 29°59' W 093°52'3 6.2
2018-Jun-14 12:00N 29°59' W 093°56'2 4.7
2018-Jun-14 11:30N 30°01' W 093°58'1 2.3
2018-Jun-14 11:00N 30°01' W 093°59'0 0.0
2018-Jun-14 10:30N 30°01' W 093°59'0 0.0
2018-Jun-14 10:00N 30°01' W 093°59'0 0.0
2018-Jun-14 09:30N 30°01' W 093°59'0 0.0
2018-Jun-14 09:00N 30°01' W 093°59'0 0.0
2018-Jun-14 08:30N 30°01' W 093°59'0 0.0
2018-Jun-14 08:00N 30°01' W 093°59'0 0.0
2018-Jun-14 07:30N 30°01' W 093°59'0 0.0
2018-Jun-14 07:00N 30°01' W 093°59'0 0.0
2018-Jun-14 06:30N 30°01' W 093°59'0 0.0
2018-Jun-14 06:00N 30°01' W 093°59'0 0.0
2018-Jun-14 05:30N 30°01' W 093°59'0 0.0
2018-Jun-14 05:00N 30°01' W 093°59'0 0.0
2018-Jun-14 04:30N 30°01' W 093°59'0 0.0
2018-Jun-14 04:00N 30°01' W 093°59'0 0.0
2018-Jun-14 03:30N 30°01' W 093°59'0 0.0
2018-Jun-14 03:00N 30°01' W 093°59'0 0.0
2018-Jun-14 02:30N 30°01' W 093°59'0 0.0
2018-Jun-14 02:00N 30°01' W 093°59'0 0.0
2018-Jun-14 01:30N 30°01' W 093°59'0 0.0
2018-Jun-14 01:00N 30°01' W 093°59'0 0.0
2018-Jun-14 00:30N 30°01' W 093°59'0 0.0
2018-Jun-13 23:59N 30°01' W 093°59'0 0.0
2018-Jun-13 23:30N 30°01' W 093°59'0 0.0
2018-Jun-13 23:00N 30°01' W 093°59'0 0.0
2018-Jun-13 22:30N 30°01' W 093°59'0 0.0
2018-Jun-13 22:00N 30°01' W 093°59'0 0.0
2018-Jun-13 21:30N 30°01' W 093°59'0 0.0
2018-Jun-13 20:59N 30°01' W 093°59'0 0.0
2018-Jun-13 20:30N 30°01' W 093°59'0 0.0
2018-Jun-13 20:00N 30°01' W 093°59'0 0.0
2018-Jun-13 19:30N 30°01' W 093°59'0 0.0
2018-Jun-13 19:00N 30°01' W 093°59'0 0.0
2018-Jun-13 18:30N 30°01' W 093°59'0 0.0
2018-Jun-13 18:00N 30°01' W 093°59'0 0.0
2018-Jun-13 17:30N 30°01' W 093°59'0 0.0
2018-Jun-13 17:00N 30°01' W 093°59'0 0.0
2018-Jun-13 16:30N 30°01' W 093°59'0 0.0
2018-Jun-13 16:00N 30°01' W 093°59'0 0.0
2018-Jun-13 15:30N 30°01' W 093°59'0 0.0
2018-Jun-13 15:00N 30°01' W 093°59'0 0.0
2018-Jun-13 14:30N 30°01' W 093°59'0 0.0
2018-Jun-13 14:00N 30°01' W 093°59'0 0.6
2018-Jun-13 13:30N 30°01' W 093°59'0 0.1
2018-Jun-13 13:00N 30°01' W 093°59'0 0.1
2018-Jun-13 12:30N 30°01' W 093°59'0 0.0
2018-Jun-13 12:00N 30°01' W 093°59'0 0.0
2018-Jun-13 11:30N 30°01' W 093°59'1 2.1
2018-Jun-13 11:00N 30°01' W 093°58'3 6.0
2018-Jun-13 10:30N 29°59' W 093°55'3 5.9
2018-Jun-13 10:00N 29°59' W 093°51'2 4.0
2018-Jun-13 09:30N 29°59' W 093°49'3 5.2
2018-Jun-13 09:00N 29°60' W 093°46'3 5.3
2018-Jun-13 08:30N 30°02' W 093°44'2 4.9
2018-Jun-13 08:00N 30°03' W 093°42'10 5.1
2018-Jun-13 06:08N 30°04' W 093°31'1 4.4
2018-Jun-13 05:57N 30°04' W 093°30'2 4.5
2018-Jun-13 05:30N 30°04' W 093°28'2 4.5
2018-Jun-13 05:00N 30°04' W 093°25'2 3.7
2018-Jun-13 04:30N 30°04' W 093°23'2 3.4
2018-Jun-13 04:00N 30°04' W 093°21'2 3.2
2018-Jun-13 03:30N 30°05' W 093°20'2 3.5
2018-Jun-13 03:00N 30°06' W 093°18'1 2.4
2018-Jun-13 02:30N 30°05' W 093°17'1 1.3
2018-Jun-13 02:00N 30°05' W 093°17'0 0.1
2018-Jun-13 01:30N 30°05' W 093°17'0 0.0
2018-Jun-13 01:00N 30°05' W 093°17'0 0.0
2018-Jun-13 00:30N 30°05' W 093°17'0 0.0
2018-Jun-13 00:01N 30°05' W 093°17'0 0.1
2018-Jun-12 23:31N 30°05' W 093°17'0 0.0
2018-Jun-12 23:00N 30°05' W 093°17'0 0.1
2018-Jun-12 22:30N 30°05' W 093°17'0 0.0
2018-Jun-12 22:00N 30°05' W 093°17'0 0.0
2018-Jun-12 21:30N 30°05' W 093°17'0 0.0
2018-Jun-12 21:00N 30°05' W 093°17'0 0.0
2018-Jun-12 20:30N 30°05' W 093°17'0 0.0
2018-Jun-12 20:00N 30°05' W 093°17'0 0.0
2018-Jun-12 19:30N 30°05' W 093°17'0 0.0
2018-Jun-12 19:00N 30°05' W 093°17'0 0.0
2018-Jun-12 18:30N 30°05' W 093°17'0 0.0
2018-Jun-12 18:00N 30°05' W 093°17'0 0.1
2018-Jun-12 17:30N 30°05' W 093°17'0 0.0
2018-Jun-12 17:00N 30°05' W 093°17'0 0.0
2018-Jun-12 16:30N 30°05' W 093°17'0 0.0
2018-Jun-12 15:59N 30°05' W 093°17'0 0.2
2018-Jun-12 15:30N 30°05' W 093°17'0 0.0
2018-Jun-12 15:00N 30°05' W 093°17'0 0.0
2018-Jun-12 14:30N 30°05' W 093°17'0 0.0
2018-Jun-12 14:00N 30°05' W 093°17'0 0.0
2018-Jun-12 13:30N 30°05' W 093°17'0 0.1
2018-Jun-12 13:00N 30°05' W 093°17'0 0.5
2018-Jun-12 12:30N 30°05' W 093°16'1 1.8
2018-Jun-12 12:00N 30°04' W 093°16'0 0.1
2018-Jun-12 11:30N 30°04' W 093°16'0 0.0
2018-Jun-12 11:00N 30°04' W 093°16'0 0.1
2018-Jun-12 10:30N 30°04' W 093°16'0 0.0
2018-Jun-12 10:00N 30°04' W 093°16'0 0.1
2018-Jun-12 09:30N 30°04' W 093°16'1 1.0
2018-Jun-12 09:00N 30°03' W 093°16'1 2.1
2018-Jun-12 08:30N 30°02' W 093°15'2 3.1
2018-Jun-12 08:00N 30°01' W 093°14'2 3.2
2018-Jun-12 07:30N 29°60' W 093°13'0 0.5
2018-Jun-12 07:00N 29°60' W 093°13'0 0.0
2018-Jun-12 06:30N 29°60' W 093°13'0 0.0
2018-Jun-12 06:00N 29°60' W 093°13'0 0.0
2018-Jun-12 05:30N 29°60' W 093°13'0 0.0
2018-Jun-12 05:00N 29°60' W 093°13'0 0.1
2018-Jun-12 04:30N 29°60' W 093°13'0 0.0
2018-Jun-12 04:00N 29°60' W 093°13'1 1.1
2018-Jun-12 03:30N 29°59' W 093°13'2 4.5
2018-Jun-12 03:00N 29°57' W 093°11'2 4.2
2018-Jun-12 02:30N 29°56' W 093°09'43 4.3
2018-Jun-11 16:39N 29°51' W 092°20'1 4.7
2018-Jun-11 16:30N 29°50' W 092°19'2 4.1
2018-Jun-11 16:00N 29°49' W 092°17'2 4.3
2018-Jun-11 15:30N 29°48' W 092°15'2 4.9
2018-Jun-11 15:00N 29°47' W 092°13'1 1.3
2018-Jun-11 14:30N 29°47' W 092°12'1 1.3
2018-Jun-11 14:00N 29°47' W 092°11'1 2.9
2018-Jun-11 13:30N 29°47' W 092°10'3 5.4
2018-Jun-11 13:00N 29°48' W 092°07'3 5.0
2018-Jun-11 12:30N 29°48' W 092°04'3 5.1
2018-Jun-11 12:00N 29°49' W 092°01'3 5.3
2018-Jun-11 11:29N 29°50' W 091°58'  

Dump ship's entire track history